Terminal Aerodrome Forecast
Issued by NWS

Home | Current Version | Previous Version | Text Only | Print | Product List | Glossary On
Versions: 1 2 3 4 5 6 7 8 9 10 11 12
000
FTUS46 KOTX 241120
TAFMWH
TAF
KMWH 241120Z 2412/2512 VRB04KT P6SM BKN100
     FM241700 VRB03KT P6SM FEW120 BKN250
     FM242000 20006KT P6SM SCT150 OVC200
     FM250200 18004KT P6SM BKN150
     FM250800 33005KT P6SM SCT150 SCT200=

USA.gov is the U.S. government's official web portal to all federal, state and local government web resources and services.